createdAt,value
2023-02-18T00:00:06.415Z,9.27
2023-02-18T00:02:33.570Z,10.00
2023-02-18T00:04:59.945Z,9.63
2023-02-18T00:07:26.171Z,9.70
2023-02-18T00:09:52.312Z,9.47
2023-02-18T00:12:18.444Z,10.03
2023-02-18T00:14:44.662Z,10.03
2023-02-18T00:17:10.774Z,9.13
2023-02-18T00:19:37.559Z,9.87
2023-02-18T00:22:03.688Z,9.57
2023-02-18T00:24:29.794Z,10.30
2023-02-18T00:26:56.129Z,10.33
2023-02-18T00:29:22.355Z,10.27
2023-02-18T00:31:48.595Z,10.63
2023-02-18T00:34:14.857Z,10.43
2023-02-18T00:36:41.861Z,10.50
2023-02-18T00:39:09.358Z,11.17
2023-02-18T00:41:35.848Z,10.37
2023-02-18T00:44:01.992Z,10.63
2023-02-18T00:46:28.284Z,10.77
2023-02-18T00:48:55.031Z,10.50
2023-02-18T00:51:21.928Z,11.10
2023-02-18T00:53:48.891Z,11.40
2023-02-18T00:56:15.146Z,11.03
2023-02-18T00:58:41.257Z,11.23
2023-02-18T01:01:08.446Z,11.60
2023-02-18T01:03:35.034Z,10.37
2023-02-18T01:06:01.128Z,12.07
2023-02-18T01:08:27.347Z,11.13
2023-02-18T01:10:55.990Z,11.17
2023-02-18T01:13:23.680Z,11.73
2023-02-18T01:15:49.930Z,11.67
2023-02-18T01:18:16.113Z,11.70
2023-02-18T01:20:43.769Z,12.27
2023-02-18T01:23:10.586Z,10.87
2023-02-18T01:25:37.061Z,11.27
2023-02-18T01:28:05.031Z,11.70
2023-02-18T01:30:31.291Z,11.43
2023-02-18T01:32:57.597Z,10.63
2023-02-18T01:35:23.917Z,10.20
2023-02-18T01:37:50.663Z,11.13
2023-02-18T01:40:19.657Z,10.63
2023-02-18T01:42:46.362Z,10.33
2023-02-18T01:45:45.420Z,9.43
2023-02-18T01:48:16.000Z,9.37
2023-02-18T01:50:44.996Z,9.80
2023-02-18T01:53:11.629Z,9.20
2023-02-18T01:55:38.445Z,8.70
2023-02-18T01:58:04.594Z,9.13
2023-02-18T02:00:31.999Z,9.30
2023-02-18T02:02:58.838Z,8.50
2023-02-18T02:05:30.318Z,8.53
2023-02-18T02:07:56.436Z,8.33
2023-02-18T02:10:22.885Z,9.30
2023-02-18T02:12:56.537Z,9.07
2023-02-18T02:15:29.817Z,8.30
2023-02-18T02:18:13.021Z,8.27
2023-02-18T02:21:14.343Z,7.53
2023-02-18T02:24:32.310Z,8.27
2023-02-18T02:27:07.006Z,7.83
2023-02-18T02:29:56.391Z,8.30
2023-02-18T02:32:43.231Z,8.33
2023-02-18T02:35:11.354Z,7.50
2023-02-18T02:37:41.715Z,7.63
2023-02-18T02:40:18.262Z,8.20
2023-02-18T02:42:51.178Z,7.87
2023-02-18T02:45:22.462Z,9.03
2023-02-18T02:47:51.544Z,8.70
2023-02-18T02:50:20.599Z,8.70
2023-02-18T02:52:50.126Z,8.70
2023-02-18T02:55:16.482Z,9.20
2023-02-18T02:57:53.233Z,8.97
2023-02-18T03:00:22.227Z,9.30
2023-02-18T03:03:05.871Z,10.50
2023-02-18T03:05:39.130Z,9.67
2023-02-18T03:08:13.695Z,9.53
2023-02-18T03:10:47.287Z,9.40
2023-02-18T03:13:18.643Z,9.77
2023-02-18T03:15:50.118Z,9.80
2023-02-18T03:18:19.241Z,8.67
2023-02-18T03:20:51.574Z,8.67
2023-02-18T03:23:21.708Z,8.83
2023-02-18T03:25:48.763Z,8.53
2023-02-18T03:28:17.768Z,8.43
2023-02-18T03:30:47.781Z,8.50
2023-02-18T03:33:15.924Z,8.07
2023-02-18T03:35:42.691Z,8.20
2023-02-18T03:38:12.428Z,6.53
2023-02-18T03:40:38.745Z,7.50
2023-02-18T03:43:04.996Z,7.60
2023-02-18T03:45:31.184Z,7.43
2023-02-18T03:47:57.301Z,6.57
2023-02-18T03:50:23.850Z,6.97
2023-02-18T03:52:50.338Z,6.47
2023-02-18T03:55:17.334Z,5.87
2023-02-18T03:57:43.456Z,6.20
2023-02-18T04:00:10.838Z,6.13
2023-02-18T04:02:37.419Z,6.17
2023-02-18T04:05:03.797Z,5.80
2023-02-18T04:07:29.944Z,5.70
2023-02-18T04:09:56.088Z,5.67
2023-02-18T04:12:24.329Z,4.90
2023-02-18T04:14:50.824Z,5.03
2023-02-18T04:17:17.024Z,5.27
2023-02-18T04:19:43.363Z,4.87
2023-02-18T04:22:09.467Z,5.03
2023-02-18T04:24:35.597Z,4.70
2023-02-18T04:27:01.799Z,5.27
2023-02-18T04:29:28.812Z,4.93
2023-02-18T04:31:54.963Z,5.27
2023-02-18T04:34:21.111Z,4.70
2023-02-18T04:36:47.322Z,5.30
2023-02-18T04:39:13.513Z,4.30
2023-02-18T04:41:39.639Z,4.03
2023-02-18T04:44:05.754Z,3.97
2023-02-18T04:46:32.555Z,3.77
2023-02-18T04:48:58.729Z,3.63
2023-02-18T04:51:24.841Z,3.60
2023-02-18T04:53:50.956Z,3.57
2023-02-18T04:56:17.089Z,3.33
2023-02-18T04:58:43.203Z,2.97
2023-02-18T05:01:10.223Z,3.17
2023-02-18T05:03:37.028Z,3.00
2023-02-18T05:06:03.521Z,2.80
2023-02-18T05:08:29.702Z,2.60
2023-02-18T05:10:55.917Z,3.17
2023-02-18T05:13:22.364Z,3.10
2023-02-18T05:15:48.527Z,3.20
2023-02-18T05:18:14.724Z,3.07
2023-02-18T05:20:41.458Z,3.03
2023-02-18T05:23:07.607Z,2.87
2023-02-18T05:25:33.751Z,3.50
2023-02-18T05:27:59.871Z,3.70
2023-02-18T05:30:26.024Z,3.07
2023-02-18T05:32:52.155Z,3.27
2023-02-18T05:35:18.513Z,3.40
2023-02-18T05:37:45.291Z,3.30
2023-02-18T05:40:12.188Z,3.80
2023-02-18T05:42:38.311Z,3.63
2023-02-18T05:45:04.842Z,3.53
2023-02-18T05:47:31.095Z,3.90
2023-02-18T05:49:57.343Z,3.80
2023-02-18T05:52:23.468Z,3.77
2023-02-18T05:54:50.247Z,3.70
2023-02-18T05:57:16.451Z,4.17
2023-02-18T05:59:42.735Z,4.20
2023-02-18T06:02:08.844Z,4.30
2023-02-18T06:04:34.985Z,4.63
2023-02-18T06:07:01.128Z,4.30
2023-02-18T06:09:27.299Z,4.40
2023-02-18T06:11:54.182Z,3.57
2023-02-18T06:14:20.367Z,3.77
2023-02-18T06:16:46.507Z,3.20
2023-02-18T06:19:12.615Z,3.50
2023-02-18T06:21:38.753Z,3.87
2023-02-18T06:24:05.491Z,3.47
2023-02-18T06:26:31.708Z,3.93
2023-02-18T06:28:58.449Z,3.93
2023-02-18T06:31:24.755Z,3.63
2023-02-18T06:33:50.966Z,3.67
2023-02-18T06:36:17.134Z,3.57
2023-02-18T06:38:44.380Z,3.90
2023-02-18T06:41:10.987Z,3.80
2023-02-18T06:43:37.136Z,3.73
2023-02-18T06:46:04.738Z,3.47
2023-02-18T06:48:31.305Z,3.10
2023-02-18T06:50:57.450Z,3.40
2023-02-18T06:53:23.650Z,3.20
2023-02-18T06:55:49.790Z,2.90
2023-02-18T06:58:15.966Z,3.00
2023-02-18T07:00:42.154Z,2.77
2023-02-18T07:03:11.343Z,2.97
2023-02-18T07:05:37.452Z,2.70
2023-02-18T07:08:03.833Z,2.67
2023-02-18T07:10:29.947Z,2.70
2023-02-18T07:12:56.090Z,2.40
2023-02-18T07:15:23.503Z,2.67
2023-02-18T07:17:49.744Z,2.47
2023-02-18T07:20:16.930Z,2.40
2023-02-18T07:22:43.081Z,2.30
2023-02-18T07:25:09.203Z,2.37
2023-02-18T07:27:35.344Z,2.20
2023-02-18T07:30:01.524Z,1.80
2023-02-18T07:32:27.738Z,2.43
2023-02-18T07:34:53.896Z,2.30
2023-02-18T07:37:20.794Z,1.80
2023-02-18T07:39:46.938Z,1.90
2023-02-18T07:42:13.522Z,1.97
2023-02-18T07:44:40.377Z,2.20
2023-02-18T07:47:07.611Z,2.30
2023-02-18T07:49:34.398Z,1.83
2023-02-18T07:52:00.662Z,2.03
2023-02-18T07:54:27.644Z,1.70
2023-02-18T07:56:54.280Z,1.90
2023-02-18T07:59:20.416Z,2.17
2023-02-18T08:01:46.592Z,1.87
2023-02-18T08:04:12.870Z,1.50
2023-02-18T08:06:41.022Z,1.60
2023-02-18T08:09:07.407Z,1.60
2023-02-18T08:11:34.904Z,1.93
2023-02-18T08:14:01.289Z,1.73
2023-02-18T08:16:28.181Z,1.50
2023-02-18T08:18:54.566Z,1.30
2023-02-18T08:21:22.403Z,1.73
2023-02-18T08:23:49.068Z,1.37
2023-02-18T08:26:15.739Z,2.23
2023-02-18T08:28:42.647Z,1.77
2023-02-18T08:31:16.598Z,1.80
2023-02-18T08:33:42.746Z,2.10
2023-02-18T08:36:09.847Z,1.93
2023-02-18T08:38:36.596Z,1.90
2023-02-18T08:41:04.787Z,2.20
2023-02-18T08:43:31.028Z,2.40
2023-02-18T08:45:58.503Z,2.00
2023-02-18T08:48:25.265Z,1.90
2023-02-18T08:50:51.418Z,2.40
2023-02-18T08:53:18.237Z,1.80
2023-02-18T08:55:44.921Z,1.90
2023-02-18T08:58:11.649Z,2.13
2023-02-18T09:00:38.569Z,2.43
2023-02-18T09:03:05.670Z,2.63
2023-02-18T09:05:31.842Z,2.10
2023-02-18T09:07:57.993Z,2.30
2023-02-18T09:10:24.560Z,2.03
2023-02-18T09:12:50.692Z,2.13
2023-02-18T09:15:17.502Z,1.80
2023-02-18T09:17:43.655Z,2.50
2023-02-18T09:20:10.938Z,2.20
2023-02-18T09:22:37.531Z,2.20
2023-02-18T09:25:04.051Z,2.20
2023-02-18T09:27:30.176Z,2.30
2023-02-18T09:29:56.272Z,2.43
2023-02-18T09:32:33.626Z,2.00
2023-02-18T09:35:00.867Z,2.07
2023-02-18T09:37:28.083Z,2.30
2023-02-18T09:39:54.433Z,2.20
2023-02-18T09:42:23.920Z,2.20
2023-02-18T09:44:52.300Z,2.00
2023-02-18T09:47:22.541Z,2.53
2023-02-18T09:49:51.235Z,2.80
2023-02-18T09:52:20.294Z,2.67
2023-02-18T09:54:48.304Z,2.50
2023-02-18T09:57:21.246Z,2.37
2023-02-18T09:59:48.575Z,2.57
2023-02-18T10:02:16.636Z,2.20
2023-02-18T10:04:44.952Z,2.30
2023-02-18T10:07:18.758Z,2.83
2023-02-18T10:09:45.787Z,2.60
2023-02-18T10:12:16.361Z,2.40
2023-02-18T10:14:43.079Z,3.07
2023-02-18T10:17:13.362Z,2.40
2023-02-18T10:19:40.454Z,2.83
2023-02-18T10:22:08.545Z,2.47
2023-02-18T10:24:38.174Z,2.40
2023-02-18T10:27:06.587Z,2.90
2023-02-18T10:29:33.749Z,2.53
2023-02-18T10:32:05.878Z,2.30
2023-02-18T10:34:40.797Z,2.17
2023-02-18T10:37:18.065Z,2.77
2023-02-18T10:39:55.418Z,2.37
2023-02-18T10:42:42.282Z,2.87
2023-02-18T10:45:17.635Z,2.43
2023-02-18T10:47:48.531Z,2.50
2023-02-18T10:50:25.223Z,2.23
2023-02-18T10:52:52.367Z,2.47
2023-02-18T10:55:18.852Z,2.67
2023-02-18T10:57:46.643Z,2.70
2023-02-18T11:00:18.428Z,2.80
2023-02-18T11:02:44.830Z,2.70
2023-02-18T11:05:19.991Z,3.20
2023-02-18T11:07:48.294Z,3.27
2023-02-18T11:10:17.421Z,3.13
2023-02-18T11:12:46.025Z,3.23
2023-02-18T11:15:21.088Z,3.70
2023-02-18T11:17:49.301Z,3.57
2023-02-18T11:20:30.914Z,3.17
2023-02-18T11:22:58.794Z,3.83
2023-02-18T11:25:27.338Z,3.80
2023-02-18T11:27:55.766Z,3.40
2023-02-18T11:30:25.381Z,3.97
2023-02-18T11:32:53.553Z,3.80
2023-02-18T11:35:22.272Z,3.60
2023-02-18T11:37:48.590Z,3.30
2023-02-18T11:40:21.496Z,3.33
2023-02-18T11:42:47.673Z,3.30
2023-02-18T11:45:27.112Z,3.13
2023-02-18T11:47:59.727Z,3.43
2023-02-18T11:50:26.121Z,3.20
2023-02-18T11:52:53.106Z,2.90
2023-02-18T11:55:21.460Z,3.57
2023-02-18T11:57:50.160Z,3.60
2023-02-18T12:00:22.133Z,3.23
2023-02-18T12:02:50.729Z,3.17
2023-02-18T12:05:21.513Z,3.40
2023-02-18T12:07:49.963Z,3.57
2023-02-18T12:10:22.295Z,3.47
2023-02-18T12:12:51.201Z,3.50
2023-02-18T12:15:20.907Z,4.63
2023-02-18T12:17:56.388Z,3.90
2023-02-18T12:20:45.432Z,3.40
2023-02-18T12:23:18.860Z,3.63
2023-02-18T12:25:54.134Z,3.53
2023-02-18T12:28:36.030Z,3.70
2023-02-18T12:31:12.923Z,3.57
2023-02-18T12:33:51.424Z,3.40
2023-02-18T12:36:25.024Z,3.70
2023-02-18T12:38:55.106Z,3.60
2023-02-18T12:41:31.844Z,3.87
2023-02-18T12:44:04.703Z,4.30
2023-02-18T12:46:39.411Z,4.27
2023-02-18T12:49:24.401Z,4.10
2023-02-18T12:52:02.375Z,3.87
2023-02-18T12:54:41.938Z,3.90
2023-02-18T12:57:34.220Z,4.07
2023-02-18T13:00:19.539Z,4.53
2023-02-18T13:02:58.051Z,4.20
2023-02-18T13:05:31.276Z,3.80
2023-02-18T13:08:08.253Z,4.40
2023-02-18T13:10:44.427Z,4.50
2023-02-18T13:13:12.956Z,3.97
2023-02-18T13:15:42.648Z,4.37
2023-02-18T13:18:12.605Z,4.00
2023-02-18T13:20:41.192Z,4.17
2023-02-18T13:23:16.189Z,4.00
2023-02-18T13:25:42.549Z,4.10
2023-02-18T13:28:17.680Z,5.20
2023-02-18T13:30:48.004Z,4.50
2023-02-18T13:33:17.899Z,4.43
2023-02-18T13:35:48.693Z,4.37
2023-02-18T13:38:47.135Z,4.10
2023-02-18T13:41:13.309Z,4.97
2023-02-18T13:43:39.663Z,5.63
2023-02-18T13:46:11.068Z,4.80
2023-02-18T13:48:43.988Z,4.67
2023-02-18T13:51:12.208Z,4.93
2023-02-18T13:53:41.977Z,4.60
2023-02-18T13:56:09.686Z,4.93
2023-02-18T13:58:39.205Z,5.40
2023-02-18T14:01:11.181Z,4.73
2023-02-18T14:03:51.804Z,5.03
2023-02-18T14:06:20.359Z,4.67
2023-02-18T14:08:47.269Z,5.03
2023-02-18T14:11:34.041Z,5.10
2023-02-18T14:14:39.712Z,5.00
2023-02-18T14:17:40.702Z,4.63
2023-02-18T14:20:33.124Z,4.87
2023-02-18T14:22:59.917Z,5.30
2023-02-18T14:25:37.769Z,5.43
2023-02-18T14:28:32.377Z,4.90
2023-02-18T14:31:01.092Z,4.73
2023-02-18T14:33:30.719Z,4.40
2023-02-18T14:36:00.357Z,5.10
2023-02-18T14:38:37.435Z,5.07
2023-02-18T14:41:21.121Z,4.40
2023-02-18T14:44:00.215Z,4.40
2023-02-18T14:46:35.441Z,4.77
2023-02-18T14:49:16.706Z,4.33
2023-02-18T14:51:44.356Z,4.40
2023-02-18T14:54:13.583Z,5.23
2023-02-18T14:56:50.326Z,4.90
2023-02-18T14:59:16.937Z,5.10
2023-02-18T15:01:43.183Z,5.00
2023-02-18T15:04:14.504Z,4.67
2023-02-18T15:06:40.626Z,5.00
2023-02-18T15:09:14.506Z,5.20
2023-02-18T15:11:43.308Z,5.53
2023-02-18T15:14:13.689Z,5.27
2023-02-18T15:16:40.135Z,5.13
2023-02-18T15:19:12.513Z,4.77
2023-02-18T15:21:41.787Z,4.80
2023-02-18T15:24:11.321Z,4.60
2023-02-18T15:26:42.503Z,4.43
2023-02-18T15:29:14.999Z,4.97
2023-02-18T15:31:41.268Z,4.80
2023-02-18T15:34:25.619Z,5.20
2023-02-18T15:36:52.357Z,5.10
2023-02-18T15:39:18.536Z,4.87
2023-02-18T15:41:45.679Z,4.40
2023-02-18T15:44:19.098Z,4.70
2023-02-18T15:46:45.303Z,4.70
2023-02-18T15:49:14.986Z,5.07
2023-02-18T15:51:41.801Z,4.90
2023-02-18T15:54:15.110Z,4.77
2023-02-18T15:56:43.914Z,4.87
2023-02-18T15:59:17.187Z,5.10
2023-02-18T16:01:47.271Z,5.40
2023-02-18T16:04:14.874Z,4.80
2023-02-18T16:06:46.066Z,5.07
2023-02-18T16:09:16.150Z,5.23
2023-02-18T16:11:44.074Z,5.13
2023-02-18T16:14:23.227Z,5.40
2023-02-18T16:17:08.639Z,5.23
2023-02-18T16:19:42.417Z,5.03
2023-02-18T16:22:23.674Z,5.73
2023-02-18T16:24:51.181Z,5.47
2023-02-18T16:27:17.480Z,5.60
2023-02-18T16:29:44.485Z,5.13
2023-02-18T16:32:10.778Z,6.10
2023-02-18T16:34:36.962Z,5.70
2023-02-18T16:37:17.850Z,5.63
2023-02-18T16:39:43.977Z,6.60
2023-02-18T16:42:12.131Z,6.00
2023-02-18T16:44:38.711Z,6.40
2023-02-18T16:47:06.298Z,6.57
2023-02-18T16:49:32.758Z,5.80
2023-02-18T16:51:59.898Z,5.90
2023-02-18T16:54:27.684Z,5.43
2023-02-18T16:56:54.216Z,5.97
2023-02-18T16:59:20.448Z,5.53
2023-02-18T17:01:46.682Z,5.97
2023-02-18T17:04:15.030Z,6.57
2023-02-18T17:06:42.602Z,5.63
2023-02-18T17:09:15.030Z,6.07
2023-02-18T17:11:41.251Z,6.30
2023-02-18T17:14:09.280Z,5.87
2023-02-18T17:16:35.533Z,5.90
2023-02-18T17:19:01.818Z,6.00
2023-02-18T17:21:28.612Z,6.17
2023-02-18T17:23:54.864Z,6.13
2023-02-18T17:26:23.735Z,5.73
2023-02-18T17:28:50.719Z,6.40
2023-02-18T17:31:18.612Z,6.57
2023-02-18T17:33:45.627Z,5.53
2023-02-18T17:36:12.243Z,6.33
2023-02-18T17:38:39.198Z,6.00
2023-02-18T17:41:05.717Z,5.20
2023-02-18T17:43:32.245Z,6.07
2023-02-18T17:45:58.674Z,6.20
2023-02-18T17:48:25.578Z,6.10
2023-02-18T17:50:52.230Z,6.10
2023-02-18T17:53:18.707Z,5.87
2023-02-18T17:55:46.655Z,6.50
2023-02-18T17:58:13.534Z,6.03
2023-02-18T18:00:42.429Z,6.40
2023-02-18T18:03:10.602Z,6.43
2023-02-18T18:05:39.068Z,6.30
2023-02-18T18:08:06.043Z,6.13
2023-02-18T18:10:34.204Z,6.33
2023-02-18T18:13:02.600Z,7.63
2023-02-18T18:15:30.699Z,6.30
2023-02-18T18:17:57.719Z,6.40
2023-02-18T18:20:25.050Z,6.40
2023-02-18T18:22:52.745Z,6.93
2023-02-18T18:25:21.840Z,7.13
2023-02-18T18:27:49.651Z,7.70
2023-02-18T18:30:16.965Z,7.43
2023-02-18T18:32:43.092Z,7.37
2023-02-18T18:35:18.564Z,8.30
2023-02-18T18:37:44.774Z,7.80
2023-02-18T18:40:10.980Z,7.97
2023-02-18T18:42:37.750Z,7.53
2023-02-18T18:45:04.651Z,8.03
2023-02-18T18:47:31.374Z,8.47
2023-02-18T18:49:57.491Z,9.20
2023-02-18T18:52:24.235Z,8.63
2023-02-18T18:54:50.459Z,8.33
2023-02-18T18:57:16.705Z,8.40
2023-02-18T18:59:42.868Z,9.73
2023-02-18T19:02:13.448Z,8.83
2023-02-18T19:04:40.223Z,8.43
2023-02-18T19:07:06.416Z,9.27
2023-02-18T19:09:32.618Z,9.37
2023-02-18T19:11:58.749Z,8.83
2023-02-18T19:14:25.002Z,9.17
2023-02-18T19:16:51.119Z,8.60
2023-02-18T19:19:19.409Z,9.20
2023-02-18T19:21:48.119Z,9.30
2023-02-18T19:24:14.347Z,9.30
2023-02-18T19:26:40.625Z,8.40
2023-02-18T19:29:06.886Z,9.50
2023-02-18T19:31:33.154Z,8.53
2023-02-18T19:33:59.491Z,9.10
2023-02-18T19:36:25.824Z,9.80
2023-02-18T19:38:52.784Z,9.67
2023-02-18T19:41:19.084Z,9.53
2023-02-18T19:43:46.218Z,10.37
2023-02-18T19:46:14.358Z,10.00
2023-02-18T19:48:40.762Z,9.83
2023-02-18T19:51:08.324Z,9.70
2023-02-18T19:53:35.139Z,9.67
2023-02-18T19:56:05.498Z,9.73
2023-02-18T19:58:31.644Z,9.47
2023-02-18T20:00:57.821Z,9.83
2023-02-18T20:03:24.044Z,9.40
2023-02-18T20:05:50.264Z,10.47
2023-02-18T20:08:16.741Z,10.00
2023-02-18T20:10:42.877Z,10.17
2023-02-18T20:13:11.375Z,9.87
2023-02-18T20:15:39.014Z,10.03
2023-02-18T20:18:05.277Z,9.97
2023-02-18T20:20:31.414Z,9.50
2023-02-18T20:22:57.576Z,9.43
2023-02-18T20:25:23.779Z,9.73
2023-02-18T20:28:00.296Z,9.03
2023-02-18T20:30:28.199Z,9.60
2023-02-18T20:32:54.341Z,9.50
2023-02-18T20:35:21.721Z,9.57
2023-02-18T20:37:48.000Z,9.47
2023-02-18T20:40:14.190Z,9.83
2023-02-18T20:42:41.221Z,9.97
2023-02-18T20:45:08.098Z,9.83
2023-02-18T20:47:35.069Z,9.33
2023-02-18T20:50:01.181Z,8.83
2023-02-18T20:52:27.496Z,9.37
2023-02-18T20:54:53.658Z,9.80
2023-02-18T20:57:20.101Z,9.13
2023-02-18T20:59:46.307Z,9.73
2023-02-18T21:02:13.061Z,9.03
2023-02-18T21:04:39.922Z,9.53
2023-02-18T21:07:06.056Z,9.10
2023-02-18T21:09:32.238Z,9.90
2023-02-18T21:11:58.390Z,9.40
2023-02-18T21:14:24.506Z,9.20
2023-02-18T21:16:50.858Z,9.00
2023-02-18T21:19:17.389Z,8.57
2023-02-18T21:21:44.695Z,9.23
2023-02-18T21:24:11.286Z,9.60
2023-02-18T21:26:37.691Z,9.63
2023-02-18T21:29:06.231Z,9.20
2023-02-18T21:31:33.844Z,8.90
2023-02-18T21:34:00.124Z,8.93
2023-02-18T21:36:27.184Z,9.43
2023-02-18T21:38:55.142Z,9.07
2023-02-18T21:41:21.706Z,9.13
2023-02-18T21:43:48.198Z,9.60
2023-02-18T21:46:16.119Z,8.80
2023-02-18T21:49:00.561Z,8.90
2023-02-18T21:51:44.099Z,8.60
2023-02-18T21:54:10.906Z,9.03
2023-02-18T21:56:37.041Z,8.20
2023-02-18T21:59:03.222Z,8.17
2023-02-18T22:01:29.364Z,8.73
2023-02-18T22:03:55.552Z,8.60
2023-02-18T22:06:22.268Z,8.00
2023-02-18T22:08:48.430Z,7.93
2023-02-18T22:11:15.250Z,8.53
2023-02-18T22:13:41.363Z,8.80
2023-02-18T22:16:07.528Z,8.77
2023-02-18T22:18:33.868Z,9.13
2023-02-18T22:21:00.026Z,9.07
2023-02-18T22:23:26.182Z,9.57
2023-02-18T22:25:52.292Z,9.53
2023-02-18T22:28:19.196Z,9.40
2023-02-18T22:30:45.311Z,9.10
2023-02-18T22:33:11.443Z,10.00
2023-02-18T22:35:37.560Z,9.60
2023-02-18T22:38:03.655Z,9.83
2023-02-18T22:40:29.794Z,9.97
2023-02-18T22:42:55.897Z,8.93
2023-02-18T22:45:22.795Z,8.77
2023-02-18T22:47:48.895Z,8.93
2023-02-18T22:50:15.467Z,8.73
2023-02-18T22:52:41.587Z,8.63
2023-02-18T22:55:07.770Z,9.60
2023-02-18T22:57:33.888Z,8.93
2023-02-18T23:00:00.008Z,8.93
2023-02-18T23:02:26.874Z,9.13
2023-02-18T23:04:53.013Z,8.40
2023-02-18T23:07:22.771Z,9.17
2023-02-18T23:09:48.952Z,9.00
2023-02-18T23:12:15.096Z,9.03
2023-02-18T23:14:41.336Z,8.00
2023-02-18T23:17:13.645Z,7.33
2023-02-18T23:19:41.184Z,7.63
2023-02-18T23:22:08.121Z,7.70
2023-02-18T23:24:34.923Z,7.53
2023-02-18T23:27:01.804Z,8.03
2023-02-18T23:29:27.894Z,7.83
2023-02-18T23:31:54.103Z,7.63
2023-02-18T23:34:20.230Z,7.73
2023-02-18T23:36:47.288Z,7.83
2023-02-18T23:39:16.915Z,8.60
2023-02-18T23:41:43.036Z,8.47
2023-02-18T23:44:11.383Z,9.03
2023-02-18T23:46:38.745Z,8.30
2023-02-18T23:49:05.154Z,9.00
2023-02-18T23:51:31.533Z,8.37
2023-02-18T23:54:01.318Z,9.50
2023-02-18T23:56:27.995Z,8.93
2023-02-18T23:58:56.528Z,8.93
